SashaShmel (mil_avia) wrote,
SashaShmel
mil_avia

Category:

Go-Around от "Нордвинда"

"Северный ветер" пошёл на второй круг в Храброво. За ним летел "Аэрофлот" и спокойно приземлился. А "Нордвинд" сделал это только со второй попытки. Чего испугались пилоты?
.
Boeing 737-800 VP-BSZ Nordwind Airlines | Flight NWS591 KZN-KGD

-
А за ним шёл тот самый VP-BES , который 3 января 2017 года вылетел при посадке за пределы ВПП в траву, причинив ущерб авиакомпании аж в миллиард рублей!
Виноватым оказался КВС, который принял решение в плохих метеоусловиях сажать самолёт . А мог уйти на запасной, как другие.


Погода в KGD UMKK 071200Z 08002MPS 3100 BR OVC002 01/00 Q1007 R24/290195 NOSIG RMK QBB060 OBST OBSC QFE754/1006
Tags: aeroflot, nordwind airlines, vp-bes, vpbes, аэропорт храброво, аэрофлот, северный ветер
Subscribe

Posts from This Journal “nordwind airlines” Tag

  • Post a new comment

    Error

    Anonymous comments are disabled in this journal

    default userpic

    Your reply will be screened

    Your IP address will be recorded 

  • 0 comments